Haromi — ZDJD6 — position and weather

sailwx.info

Track history (hours):
 
Tides and Currents Weather Stations Pressure Air Temp Water Temp Dewpoint Dewpoint Depression Visibility Wind Speed Wind Dir Waves Ship Positions

Haromi

Last reported at 2014-Oct-18 16:31 UTC. Time now 2014-Oct-21 20:11 UTC.
Position N 39°34' E 002°38'.

Length 18 m.

Type: Sailing vessel. MMSI: 236111575.

Date/timePositionNaut miles runAvg speedWind from/ knotsBaromVisibWave heightAir tempDewpointWater temp
2014-Oct-18 16:31N 39°34' E 002°38'0 0.0
2014-Oct-18 15:31N 39°34' E 002°38'0 0.0
2014-Oct-18 14:31N 39°34' E 002°38'0 0.0
2014-Oct-18 13:31N 39°34' E 002°38'1 1.4
2014-Oct-18 12:33N 39°33' E 002°39'7 7.4
2014-Oct-18 11:34N 39°26' E 002°43'8 7.2
2014-Oct-18 10:28N 39°20' E 002°49'  
2014-Oct-13 07:20N 38°15' E 015°16'2 2.5
2014-Oct-13 06:31N 38°13' E 015°14'0 0.0
2014-Oct-13 05:31N 38°13' E 015°14'0 0.0
2014-Oct-12 18:19N 38°13' E 015°14'0 0.0
2014-Oct-12 17:31N 38°13' E 015°14'0 0.0
2014-Oct-12 13:14N 38°13' E 015°14'0 0.0
2014-Oct-12 12:32N 38°13' E 015°14'0 0.0
2014-Oct-12 11:32N 38°13' E 015°14'0 0.0
2014-Oct-12 10:32N 38°13' E 015°14'0 0.0
2014-Oct-12 09:32N 38°13' E 015°14'0 0.0
2014-Oct-12 08:32N 38°13' E 015°14'0 0.0
2014-Oct-12 07:32N 38°13' E 015°14'0 0.0
2014-Oct-12 06:32N 38°13' E 015°14'0 0.0
2014-Oct-11 18:32N 38°13' E 015°14'0 0.0
2014-Oct-11 17:32N 38°13' E 015°14'0 0.0
2014-Oct-11 16:32N 38°13' E 015°14'0 0.0
2014-Oct-11 15:32N 38°13' E 015°14'0 0.0
2014-Oct-11 14:32N 38°13' E 015°14'0 0.0
2014-Oct-11 13:32N 38°13' E 015°14'0 0.0
2014-Oct-11 12:32N 38°13' E 015°14'0 0.0
2014-Oct-11 11:32N 38°13' E 015°14'0 0.0
2014-Oct-11 10:32N 38°13' E 015°14'0 0.0
2014-Oct-11 09:32N 38°13' E 015°14'0 0.0
2014-Oct-11 08:32N 38°13' E 015°14'0 0.0
2014-Oct-11 07:32N 38°13' E 015°14'0 0.0
2014-Oct-11 06:26N 38°13' E 015°14'0 0.0
2014-Oct-11 05:32N 38°13' E 015°14'0 0.0
2014-Oct-10 18:20N 38°13' E 015°14'0 0.0
2014-Oct-10 17:32N 38°13' E 015°14'0 0.0
2014-Oct-10 16:32N 38°13' E 015°14'0 0.0
2014-Oct-10 15:32N 38°13' E 015°14'0 0.0
2014-Oct-10 14:32N 38°13' E 015°14'0 0.0
2014-Oct-10 13:32N 38°13' E 015°14'0 0.0
2014-Oct-10 12:32N 38°13' E 015°14'0 0.0
2014-Oct-10 11:32N 38°13' E 015°14'0 0.0
2014-Oct-10 10:32N 38°13' E 015°14'0 0.0
2014-Oct-10 09:32N 38°13' E 015°14'0 0.0
2014-Oct-10 08:32N 38°13' E 015°14'0 0.0
2014-Oct-10 07:32N 38°13' E 015°14'0 0.0
2014-Oct-10 06:32N 38°13' E 015°14'0 0.0
2014-Oct-10 05:32N 38°13' E 015°14'0 0.0
2014-Oct-10 04:32N 38°13' E 015°14'0 0.0
2014-Oct-10 03:32N 38°13' E 015°14'0 0.0
2014-Oct-10 02:32N 38°13' E 015°14'0 0.0
2014-Oct-10 01:32N 38°13' E 015°14'0 0.0
2014-Oct-10 00:32N 38°13' E 015°14'0 0.0
2014-Oct-09 23:32N 38°13' E 015°14'0 0.0
2014-Oct-09 22:32N 38°13' E 015°14'0 0.0
2014-Oct-09 21:32N 38°13' E 015°14'0 0.0
2014-Oct-09 20:32N 38°13' E 015°14'0 0.0
2014-Oct-09 19:32N 38°13' E 015°14'0 0.0
2014-Oct-09 18:32N 38°13' E 015°14'0 0.0
2014-Oct-09 17:32N 38°13' E 015°14'0 0.0
2014-Oct-09 16:32N 38°13' E 015°14'0 0.0
2014-Oct-09 15:32N 38°13' E 015°14'0 0.0
2014-Oct-09 14:32N 38°13' E 015°14'0 0.0
2014-Oct-09 13:32N 38°13' E 015°14'0 0.0
2014-Oct-09 12:32N 38°13' E 015°14'0 0.0
2014-Oct-09 11:32N 38°13' E 015°14'0 0.0
2014-Oct-09 10:32N 38°13' E 015°14'0 0.0
2014-Oct-08 18:32N 38°13' E 015°14'0 0.0
2014-Oct-08 17:32N 38°13' E 015°14'0 0.0
2014-Oct-08 16:32N 38°13' E 015°14'  
Track history (hours):
 
Tides and Currents Weather Stations Pressure Air Temp Water Temp Dewpoint Dewpoint Depression Visibility Wind Speed Wind Dir Waves Ship Positions

Haromi

Last reported at 2014-Oct-18 16:31 UTC. Time now 2014-Oct-21 20:11 UTC.
Position N 39°34' E 002°38'.

Length 18 m.

Type: Sailing vessel. MMSI: 236111575.

Date/timePositionNaut miles runAvg speedWind from/ knotsBaromVisibWave heightAir tempDewpointWater temp
2014-Oct-18 16:31N 39°34' E 002°38'0 0.0
2014-Oct-18 15:31N 39°34' E 002°38'0 0.0
2014-Oct-18 14:31N 39°34' E 002°38'0 0.0
2014-Oct-18 13:31N 39°34' E 002°38'1 1.4
2014-Oct-18 12:33N 39°33' E 002°39'7 7.4
2014-Oct-18 11:34N 39°26' E 002°43'8 7.2
2014-Oct-18 10:28N 39°20' E 002°49'  
2014-Oct-13 07:20N 38°15' E 015°16'2 2.5
2014-Oct-13 06:31N 38°13' E 015°14'0 0.0
2014-Oct-13 05:31N 38°13' E 015°14'0 0.0
2014-Oct-12 18:19N 38°13' E 015°14'0 0.0
2014-Oct-12 17:31N 38°13' E 015°14'0 0.0
2014-Oct-12 13:14N 38°13' E 015°14'0 0.0
2014-Oct-12 12:32N 38°13' E 015°14'0 0.0
2014-Oct-12 11:32N 38°13' E 015°14'0 0.0
2014-Oct-12 10:32N 38°13' E 015°14'0 0.0
2014-Oct-12 09:32N 38°13' E 015°14'0 0.0
2014-Oct-12 08:32N 38°13' E 015°14'0 0.0
2014-Oct-12 07:32N 38°13' E 015°14'0 0.0
2014-Oct-12 06:32N 38°13' E 015°14'0 0.0
2014-Oct-11 18:32N 38°13' E 015°14'0 0.0
2014-Oct-11 17:32N 38°13' E 015°14'0 0.0
2014-Oct-11 16:32N 38°13' E 015°14'0 0.0
2014-Oct-11 15:32N 38°13' E 015°14'0 0.0
2014-Oct-11 14:32N 38°13' E 015°14'0 0.0
2014-Oct-11 13:32N 38°13' E 015°14'0 0.0
2014-Oct-11 12:32N 38°13' E 015°14'0 0.0
2014-Oct-11 11:32N 38°13' E 015°14'0 0.0
2014-Oct-11 10:32N 38°13' E 015°14'0 0.0
2014-Oct-11 09:32N 38°13' E 015°14'0 0.0
2014-Oct-11 08:32N 38°13' E 015°14'0 0.0
2014-Oct-11 07:32N 38°13' E 015°14'0 0.0
2014-Oct-11 06:26N 38°13' E 015°14'0 0.0
2014-Oct-11 05:32N 38°13' E 015°14'0 0.0
2014-Oct-10 18:20N 38°13' E 015°14'0 0.0
2014-Oct-10 17:32N 38°13' E 015°14'0 0.0
2014-Oct-10 16:32N 38°13' E 015°14'0 0.0
2014-Oct-10 15:32N 38°13' E 015°14'0 0.0
2014-Oct-10 14:32N 38°13' E 015°14'0 0.0
2014-Oct-10 13:32N 38°13' E 015°14'0 0.0
2014-Oct-10 12:32N 38°13' E 015°14'0 0.0
2014-Oct-10 11:32N 38°13' E 015°14'0 0.0
2014-Oct-10 10:32N 38°13' E 015°14'0 0.0
2014-Oct-10 09:32N 38°13' E 015°14'0 0.0
2014-Oct-10 08:32N 38°13' E 015°14'0 0.0
2014-Oct-10 07:32N 38°13' E 015°14'0 0.0
2014-Oct-10 06:32N 38°13' E 015°14'0 0.0
2014-Oct-10 05:32N 38°13' E 015°14'0 0.0
2014-Oct-10 04:32N 38°13' E 015°14'0 0.0
2014-Oct-10 03:32N 38°13' E 015°14'0 0.0
2014-Oct-10 02:32N 38°13' E 015°14'0 0.0
2014-Oct-10 01:32N 38°13' E 015°14'0 0.0
2014-Oct-10 00:32N 38°13' E 015°14'0 0.0
2014-Oct-09 23:32N 38°13' E 015°14'0 0.0
2014-Oct-09 22:32N 38°13' E 015°14'0 0.0
2014-Oct-09 21:32N 38°13' E 015°14'0 0.0
2014-Oct-09 20:32N 38°13' E 015°14'0 0.0
2014-Oct-09 19:32N 38°13' E 015°14'0 0.0
2014-Oct-09 18:32N 38°13' E 015°14'0 0.0
2014-Oct-09 17:32N 38°13' E 015°14'0 0.0
2014-Oct-09 16:32N 38°13' E 015°14'0 0.0
2014-Oct-09 15:32N 38°13' E 015°14'0 0.0
2014-Oct-09 14:32N 38°13' E 015°14'0 0.0
2014-Oct-09 13:32N 38°13' E 015°14'0 0.0
2014-Oct-09 12:32N 38°13' E 015°14'0 0.0
2014-Oct-09 11:32N 38°13' E 015°14'0 0.0
2014-Oct-09 10:32N 38°13' E 015°14'0 0.0
2014-Oct-08 18:32N 38°13' E 015°14'0 0.0
2014-Oct-08 17:32N 38°13' E 015°14'0 0.0
2014-Oct-08 16:32N 38°13' E 015°14'  

Dump ship's entire track history